createdAt,value
2018-09-30T05:23:27.058Z,11.25
2018-09-30T05:24:27.045Z,16.88
2018-09-30T05:25:27.077Z,16.88
2018-09-30T05:26:26.893Z,16.88
2018-09-30T05:27:26.921Z,22.50
2018-09-30T05:29:52.337Z,28.12
2018-09-30T05:30:52.087Z,28.12
2018-09-30T05:31:52.101Z,28.12
2018-09-30T05:32:52.055Z,33.75
2018-09-30T05:33:52.019Z,33.75
2018-09-30T05:34:51.916Z,39.38
2018-09-30T05:35:51.905Z,39.38
2018-09-30T05:36:51.900Z,45.00
2018-09-30T05:37:51.879Z,45.00
2018-09-30T05:38:51.902Z,50.62
2018-09-30T05:39:51.882Z,50.62
2018-09-30T05:40:51.848Z,56.25
2018-09-30T05:41:51.889Z,56.25
2018-09-30T05:42:51.856Z,61.88
2018-09-30T05:43:51.816Z,61.88
2018-09-30T05:44:52.065Z,67.50
2018-09-30T05:45:51.794Z,67.50
2018-09-30T05:46:51.789Z,73.12
2018-09-30T05:47:51.829Z,73.12
2018-09-30T05:48:51.795Z,78.75
2018-09-30T05:49:51.905Z,78.75
2018-09-30T05:50:53.029Z,84.38
2018-09-30T05:51:51.759Z,84.38
2018-09-30T05:55:50.112Z,95.62
2018-09-30T05:56:49.862Z,101.25
2018-09-30T05:57:49.852Z,101.25
2018-09-30T05:58:49.950Z,106.88
2018-09-30T05:59:49.738Z,106.88
2018-09-30T06:00:49.766Z,112.50
2018-09-30T06:01:49.720Z,112.50
2018-09-30T06:02:49.719Z,118.12
2018-09-30T06:03:50.671Z,118.12
2018-09-30T06:04:49.775Z,118.12
2018-09-30T06:05:49.679Z,123.75
2018-09-30T06:06:49.808Z,123.75
2018-09-30T06:07:49.726Z,129.38
2018-09-30T06:08:49.682Z,129.38
2018-09-30T06:09:49.629Z,135.00
2018-09-30T06:10:49.690Z,135.00
2018-09-30T06:11:49.658Z,140.62
2018-09-30T06:12:50.499Z,140.62
2018-09-30T06:13:49.653Z,140.62
2018-09-30T06:14:49.576Z,146.25
2018-09-30T06:15:49.648Z,146.25
2018-09-30T06:16:49.576Z,151.88
2018-09-30T06:17:49.546Z,151.88
2018-09-30T06:18:49.531Z,151.88
2018-09-30T06:19:49.526Z,157.50
2018-09-30T06:20:49.522Z,157.50
2018-09-30T06:21:49.513Z,163.12
2018-09-30T06:22:49.504Z,163.12
2018-09-30T06:23:49.475Z,163.12
2018-09-30T06:24:49.523Z,168.75
2018-09-30T06:25:49.567Z,168.75
2018-09-30T06:26:49.592Z,174.38
2018-09-30T06:27:49.496Z,174.38
2018-09-30T06:28:49.446Z,174.38
2018-09-30T06:29:49.421Z,180.00
2018-09-30T06:30:49.406Z,180.00
2018-09-30T06:31:49.396Z,180.00
2018-09-30T06:32:49.382Z,185.62
2018-09-30T06:34:00.035Z,185.62
2018-09-30T06:34:59.158Z,185.62
2018-09-30T06:35:49.615Z,191.25
2018-09-30T06:36:49.372Z,191.25
2018-09-30T06:37:49.514Z,191.25
2018-09-30T06:38:49.418Z,196.88
2018-09-30T06:39:49.331Z,196.88
2018-09-30T06:40:49.289Z,196.88
2018-09-30T06:41:49.298Z,202.50
2018-09-30T06:42:50.062Z,202.50
2018-09-30T06:43:49.274Z,202.50
2018-09-30T06:44:49.333Z,208.12
2018-09-30T06:45:49.246Z,208.12
2018-09-30T06:46:49.227Z,208.12
2018-09-30T06:47:49.212Z,213.75
2018-09-30T06:48:49.210Z,213.75
2018-09-30T06:49:49.218Z,213.75
2018-09-30T06:50:49.281Z,219.38
2018-09-30T06:51:49.203Z,219.38
2018-09-30T06:52:49.161Z,219.38
2018-09-30T06:53:49.153Z,219.38
2018-09-30T06:54:49.134Z,225.00
2018-09-30T06:55:49.121Z,225.00
2018-09-30T06:56:49.118Z,225.00
2018-09-30T06:57:49.148Z,230.62
2018-09-30T06:58:49.089Z,230.62
2018-09-30T06:59:49.091Z,230.62
2018-09-30T07:00:49.065Z,236.25
2018-09-30T07:01:49.053Z,236.25
2018-09-30T07:02:49.059Z,241.88
2018-09-30T07:03:49.051Z,241.88
2018-09-30T07:04:49.094Z,241.88
2018-09-30T07:05:49.048Z,247.50
2018-09-30T07:06:49.119Z,247.50
2018-09-30T07:07:49.006Z,247.50
2018-09-30T07:08:48.986Z,253.12
2018-09-30T07:09:49.079Z,247.50
2018-09-30T07:12:15.089Z,258.75
2018-09-30T07:13:14.821Z,258.75
2018-09-30T07:14:19.542Z,264.38
2018-09-30T07:15:14.796Z,264.38
2018-09-30T07:16:14.582Z,270.00
2018-09-30T07:17:14.539Z,275.62
2018-09-30T07:18:14.580Z,275.62
2018-09-30T07:19:14.501Z,281.25
2018-09-30T07:20:14.502Z,281.25
2018-09-30T07:21:14.478Z,286.88
2018-09-30T07:22:14.619Z,292.50
2018-09-30T07:23:14.510Z,286.88
2018-09-30T07:24:14.489Z,292.50
2018-09-30T07:25:14.443Z,298.12
2018-09-30T07:26:14.639Z,298.12
2018-09-30T07:27:14.438Z,303.75
2018-09-30T07:28:14.430Z,303.75
2018-09-30T07:29:14.461Z,309.38
2018-09-30T07:30:14.441Z,309.38
2018-09-30T07:31:14.379Z,309.38
2018-09-30T07:32:14.369Z,315.00
2018-09-30T07:33:14.377Z,315.00
2018-09-30T07:34:14.375Z,320.62
2018-09-30T07:35:14.331Z,320.62
2018-09-30T07:36:14.339Z,326.25
2018-09-30T07:37:14.307Z,326.25
2018-09-30T07:38:14.294Z,337.50
2018-09-30T07:39:14.404Z,888.75
2018-09-30T07:40:14.364Z,1726.88
2018-09-30T07:41:14.266Z,1861.88
2018-09-30T07:42:14.250Z,1923.75
2018-09-30T07:43:14.397Z,2041.88
2018-09-30T07:44:14.279Z,2283.75
2018-09-30T07:45:14.387Z,2671.88
2018-09-30T07:46:14.438Z,2790.00
2018-09-30T07:47:14.235Z,2626.88
2018-09-30T07:48:14.225Z,2626.88
2018-09-30T07:49:14.260Z,2711.25
2018-09-30T07:50:14.166Z,2846.25
2018-09-30T07:51:14.211Z,3200.62
2018-09-30T07:52:14.171Z,3566.25
2018-09-30T07:53:14.361Z,3504.38
2018-09-30T07:54:14.286Z,3150.00
2018-09-30T07:55:14.140Z,2868.75
2018-09-30T07:56:14.127Z,2328.75
2018-09-30T07:57:14.120Z,2261.25
2018-09-30T07:58:14.175Z,2340.00
2018-09-30T08:00:39.474Z,2317.50
2018-09-30T08:01:38.814Z,2424.38
2018-09-30T08:02:40.151Z,2401.88
2018-09-30T08:03:40.875Z,2278.12
2018-09-30T08:04:51.199Z,2283.75
2018-09-30T08:05:38.844Z,2593.12
2018-09-30T08:06:38.944Z,2671.88
2018-09-30T08:07:38.986Z,2446.88
2018-09-30T08:08:39.487Z,2424.38
2018-09-30T08:09:39.679Z,2497.50
2018-09-30T08:10:38.791Z,2508.75
2018-09-30T08:11:38.668Z,2311.88
2018-09-30T08:12:38.650Z,2373.75
2018-09-30T08:13:38.647Z,2728.12
2018-09-30T08:14:38.634Z,2919.38
2018-09-30T08:15:38.608Z,2480.62
2018-09-30T08:16:38.728Z,2103.75
2018-09-30T08:17:38.623Z,2131.88
2018-09-30T08:18:38.582Z,2193.75
2018-09-30T08:19:38.605Z,3982.50
2018-09-30T08:20:38.550Z,2992.50
2018-09-30T08:21:38.535Z,2098.12
2018-09-30T08:22:38.639Z,1923.75
2018-09-30T08:23:38.513Z,2328.75
2018-09-30T08:24:38.547Z,7323.75
2018-09-30T08:25:38.777Z,3853.12
2018-09-30T08:26:38.499Z,3611.25
2018-09-30T08:27:38.518Z,3549.38
2018-09-30T08:28:38.464Z,3414.38
2018-09-30T08:29:38.452Z,3425.62
2018-09-30T08:30:38.524Z,3403.12
2018-09-30T08:31:38.447Z,3431.25
2018-09-30T08:32:38.426Z,3571.88
2018-09-30T08:33:38.511Z,3588.75
2018-09-30T08:34:38.397Z,3504.38
2018-09-30T08:35:38.424Z,3555.00
2018-09-30T08:36:38.402Z,3633.75
2018-09-30T08:37:38.376Z,3577.50
2018-09-30T08:38:38.351Z,3498.75
2018-09-30T08:39:38.418Z,3493.12
2018-09-30T08:40:38.351Z,3566.25
2018-09-30T08:41:38.327Z,3600.00
2018-09-30T08:42:38.797Z,3746.25
2018-09-30T08:43:38.337Z,3701.25
2018-09-30T08:44:38.299Z,3532.50
2018-09-30T08:45:38.323Z,3628.12
2018-09-30T08:46:38.312Z,3645.00
2018-09-30T08:47:38.324Z,3639.38
2018-09-30T08:48:38.280Z,3678.75
2018-09-30T08:49:38.239Z,3521.25
2018-09-30T08:50:38.227Z,3234.38
2018-09-30T08:51:38.221Z,3487.50
2018-09-30T08:52:38.205Z,3701.25
2018-09-30T08:53:38.219Z,3656.25
2018-09-30T08:54:38.222Z,3780.00
2018-09-30T08:55:38.203Z,3448.12
2018-09-30T08:56:38.436Z,3324.38
2018-09-30T08:57:38.157Z,3526.88
2018-09-30T08:58:40.133Z,3706.88
2018-09-30T08:59:38.146Z,3802.50
2018-09-30T09:00:38.144Z,3864.38
2018-09-30T09:01:38.127Z,3965.62
2018-09-30T09:02:38.122Z,3898.12
2018-09-30T09:03:38.121Z,3723.75
2018-09-30T09:04:38.169Z,3740.62
2018-09-30T09:05:38.147Z,3639.38
2018-09-30T09:06:38.085Z,3566.25
2018-09-30T09:07:38.072Z,3701.25
2018-09-30T09:08:38.063Z,3898.12
2018-09-30T09:09:38.081Z,4005.00
2018-09-30T09:10:38.068Z,3993.75
2018-09-30T09:11:38.006Z,3915.00
2018-09-30T09:12:37.992Z,3858.75
2018-09-30T09:13:37.985Z,3853.12
2018-09-30T09:14:38.075Z,3965.62
2018-09-30T09:15:38.316Z,4083.75
2018-09-30T09:16:37.956Z,3982.50
2018-09-30T09:17:38.103Z,3796.88
2018-09-30T09:18:37.944Z,4078.12
2018-09-30T09:19:37.955Z,4111.88
2018-09-30T09:20:37.916Z,4016.25
2018-09-30T09:21:37.923Z,2716.88
2018-09-30T09:22:37.905Z,686.25
2018-09-30T09:23:37.904Z,410.62
2018-09-30T09:24:38.021Z,405.00
2018-09-30T09:25:38.226Z,410.62
2018-09-30T09:26:38.175Z,405.00
2018-09-30T09:27:37.945Z,405.00
2018-09-30T09:28:37.831Z,399.38
2018-09-30T09:29:37.846Z,399.38
2018-09-30T09:30:37.809Z,399.38
2018-09-30T09:31:37.869Z,399.38
2018-09-30T09:32:37.927Z,399.38
2018-09-30T09:33:38.140Z,399.38
2018-09-30T09:34:37.779Z,405.00
2018-09-30T09:35:42.766Z,405.00
2018-09-30T09:36:37.926Z,405.00
2018-09-30T09:37:38.954Z,405.00
2018-09-30T09:40:49.979Z,405.00
2018-09-30T09:41:49.023Z,405.00
2018-09-30T09:42:48.975Z,405.00
2018-09-30T09:43:49.286Z,405.00
2018-09-30T09:44:49.081Z,405.00
2018-09-30T09:45:49.237Z,405.00
2018-09-30T09:46:48.930Z,405.00
2018-09-30T09:47:49.008Z,405.00
2018-09-30T09:48:49.044Z,405.00
2018-09-30T09:49:49.165Z,410.62
2018-09-30T09:50:48.909Z,410.62
2018-09-30T09:51:50.521Z,410.62
2018-09-30T10:06:11.904Z,405.00
2018-09-30T10:07:11.618Z,410.62
2018-09-30T10:08:11.584Z,410.62
2018-09-30T10:09:11.630Z,410.62
2018-09-30T10:10:12.116Z,410.62
2018-09-30T10:11:11.276Z,416.25
2018-09-30T10:12:13.252Z,416.25
2018-09-30T10:13:11.464Z,416.25
2018-09-30T10:14:11.414Z,416.25
2018-09-30T10:15:17.443Z,427.50
2018-09-30T10:16:11.246Z,421.88
2018-09-30T10:17:12.234Z,421.88
2018-09-30T10:18:11.342Z,421.88
2018-09-30T10:19:15.096Z,421.88
2018-09-30T10:20:13.207Z,421.88
2018-09-30T10:21:11.219Z,427.50
2018-09-30T10:22:11.250Z,427.50
2018-09-30T10:23:11.219Z,427.50
2018-09-30T10:24:11.159Z,427.50
2018-09-30T10:25:11.151Z,427.50
2018-09-30T10:26:11.178Z,427.50
2018-09-30T10:27:11.179Z,427.50
2018-09-30T10:28:11.079Z,427.50
2018-09-30T10:29:11.083Z,427.50
2018-09-30T10:30:11.249Z,427.50
2018-09-30T10:31:11.078Z,427.50
2018-09-30T10:32:11.079Z,427.50
2018-09-30T10:33:11.089Z,427.50
2018-09-30T10:36:14.037Z,427.50
2018-09-30T10:48:44.692Z,427.50
2018-09-30T10:49:44.651Z,427.50
2018-09-30T11:05:05.613Z,1153.12
2018-09-30T11:06:05.435Z,1850.62
2018-09-30T11:07:05.319Z,2604.38
2018-09-30T11:08:05.215Z,3436.88
2018-09-30T11:09:05.313Z,4016.25
2018-09-30T11:10:05.858Z,4044.38
2018-09-30T11:18:14.469Z,4297.50
2018-09-30T11:31:06.207Z,3898.12
2018-09-30T11:32:05.026Z,4224.38
2018-09-30T11:38:15.645Z,3678.75
2018-09-30T11:44:37.054Z,4151.25
2018-09-30T11:45:36.708Z,4196.25
2018-09-30T11:46:38.881Z,4145.62
2018-09-30T11:47:36.202Z,4128.75
2018-09-30T11:48:36.255Z,4196.25
2018-09-30T11:49:36.059Z,4246.88
2018-09-30T11:50:36.453Z,4095.00
2018-09-30T11:51:36.369Z,4033.12
2018-09-30T11:52:37.178Z,4033.12
2018-09-30T11:53:37.272Z,3757.50
2018-09-30T11:54:36.009Z,3825.00
2018-09-30T11:55:36.691Z,4016.25
2018-09-30T11:56:36.178Z,3847.50
2018-09-30T11:57:35.998Z,3875.62
2018-09-30T11:58:35.970Z,4050.00
2018-09-30T11:59:37.895Z,4145.62
2018-09-30T12:01:53.898Z,3954.38
2018-09-30T12:02:53.513Z,3965.62
2018-09-30T12:03:53.460Z,4050.00
2018-09-30T12:04:53.495Z,4005.00
2018-09-30T12:05:53.365Z,3965.62
2018-09-30T12:06:53.336Z,4038.75
2018-09-30T12:07:53.314Z,3892.50
2018-09-30T12:08:53.305Z,3819.38
2018-09-30T12:09:53.349Z,3915.00
2018-09-30T12:10:54.281Z,3920.62
2018-09-30T12:11:53.290Z,3858.75
2018-09-30T12:15:04.029Z,4010.62
2018-09-30T12:16:03.591Z,3881.25
2018-09-30T12:17:03.521Z,3780.00
2018-09-30T12:18:03.507Z,3847.50
2018-09-30T12:19:03.724Z,3847.50
2018-09-30T12:20:03.834Z,3948.75
2018-09-30T12:27:21.341Z,3650.62
2018-09-30T12:28:21.399Z,3521.25
2018-09-30T12:29:21.095Z,3538.12
2018-09-30T12:36:14.094Z,3735.00
2018-09-30T12:37:13.597Z,3796.88
2018-09-30T12:48:51.615Z,3600.00
2018-09-30T12:49:50.776Z,3751.88
2018-09-30T12:50:50.490Z,3712.50
2018-09-30T12:51:50.588Z,3701.25
2018-09-30T12:52:50.507Z,3639.38
2018-09-30T12:53:50.521Z,3650.62
2018-09-30T12:54:50.464Z,3645.00
2018-09-30T12:55:50.692Z,3605.62
2018-09-30T12:56:51.438Z,3470.62
2018-09-30T12:57:50.490Z,3757.50
2018-09-30T12:58:50.432Z,3841.88
2018-09-30T12:59:51.104Z,3605.62
2018-09-30T13:00:50.801Z,3650.62
2018-09-30T13:01:51.219Z,3600.00
2018-09-30T13:02:50.319Z,3459.38
2018-09-30T13:06:16.451Z,3622.50
2018-09-30T13:07:16.569Z,3549.38
2018-09-30T13:08:27.382Z,3532.50
2018-09-30T13:09:16.275Z,3566.25
2018-09-30T13:10:16.266Z,3611.25
2018-09-30T13:11:16.314Z,3616.88
2018-09-30T13:12:16.241Z,3481.88
2018-09-30T13:13:16.243Z,3481.88
2018-09-30T13:14:19.256Z,3639.38
2018-09-30T13:15:16.208Z,3470.62
2018-09-30T13:16:16.199Z,3453.75
2018-09-30T13:17:16.208Z,3571.88
2018-09-30T13:18:16.373Z,3577.50
2018-09-30T13:19:16.342Z,3425.62
2018-09-30T13:20:16.234Z,3414.38
2018-09-30T13:21:16.202Z,3442.50
2018-09-30T13:22:16.231Z,3330.00
2018-09-30T13:23:16.172Z,3341.25
2018-09-30T13:24:16.205Z,3166.88
2018-09-30T13:25:16.160Z,3133.12
2018-09-30T13:26:16.113Z,3228.75
2018-09-30T13:27:16.103Z,3301.88
2018-09-30T13:28:16.110Z,3341.25
2018-09-30T13:29:16.133Z,3234.38
2018-09-30T13:30:16.073Z,3150.00
2018-09-30T13:31:16.054Z,3183.75
2018-09-30T13:32:16.058Z,3285.00
2018-09-30T13:33:16.109Z,3245.62
2018-09-30T13:34:16.043Z,3138.75
2018-09-30T13:35:16.021Z,3037.50
2018-09-30T13:36:16.002Z,3076.88
2018-09-30T13:37:16.060Z,3076.88
2018-09-30T13:38:15.987Z,3082.50
2018-09-30T13:39:16.030Z,3093.75
2018-09-30T13:40:16.108Z,3031.88
2018-09-30T13:41:16.032Z,2925.00
2018-09-30T13:42:15.933Z,2930.62
2018-09-30T13:43:15.941Z,2970.00
2018-09-30T13:44:16.002Z,2896.88
2018-09-30T13:45:16.006Z,2981.25
2018-09-30T13:46:16.065Z,2919.38
2018-09-30T13:47:15.880Z,2790.00
2018-09-30T13:48:15.885Z,2756.25
2018-09-30T13:49:15.968Z,2700.00
2018-09-30T13:50:15.857Z,2581.88
2018-09-30T13:51:15.890Z,2621.25
2018-09-30T13:52:15.945Z,2671.88
2018-09-30T13:53:15.829Z,2711.25
2018-09-30T13:54:15.844Z,2688.75
2018-09-30T13:55:15.885Z,2671.88
2018-09-30T13:56:15.845Z,2666.25
2018-09-30T13:57:15.870Z,2615.62
2018-09-30T13:58:15.802Z,2711.25
2018-09-30T13:59:15.842Z,2795.62
2018-09-30T14:00:15.756Z,2694.38
2018-09-30T14:01:15.753Z,2610.00
2018-09-30T14:02:15.793Z,2666.25
2018-09-30T14:03:15.768Z,2626.88
2018-09-30T14:04:15.729Z,2581.88
2018-09-30T14:05:15.872Z,2581.88
2018-09-30T14:06:15.831Z,2525.62
2018-09-30T14:07:16.439Z,2548.12
2018-09-30T14:08:15.690Z,2475.00
2018-09-30T14:09:15.651Z,1996.88
2018-09-30T14:10:15.669Z,838.12
2018-09-30T14:11:15.667Z,888.75
2018-09-30T14:12:15.785Z,950.62
2018-09-30T14:13:15.727Z,1625.62
2018-09-30T14:14:15.719Z,1929.38
2018-09-30T14:15:16.436Z,1563.75
2018-09-30T14:16:15.589Z,1389.38
2018-09-30T14:17:15.923Z,922.50
2018-09-30T14:18:15.569Z,579.38
2018-09-30T14:19:15.596Z,388.12
2018-09-30T14:20:16.127Z,388.12
2018-09-30T14:21:15.548Z,382.50
2018-09-30T14:22:15.526Z,376.88
2018-09-30T14:23:15.516Z,371.25
2018-09-30T14:24:15.508Z,376.88
2018-09-30T14:25:15.509Z,376.88
2018-09-30T14:27:43.119Z,360.00
2018-09-30T14:28:29.523Z,360.00
2018-09-30T14:29:29.697Z,365.62
2018-09-30T14:30:29.995Z,365.62
2018-09-30T14:31:29.487Z,360.00
2018-09-30T14:32:29.481Z,360.00
2018-09-30T14:33:29.470Z,360.00
2018-09-30T14:34:29.460Z,354.38
2018-09-30T14:35:29.456Z,354.38
2018-09-30T14:36:29.454Z,354.38
2018-09-30T14:37:29.429Z,348.75
2018-09-30T14:38:29.533Z,348.75
2018-09-30T14:39:29.407Z,348.75
2018-09-30T14:40:29.394Z,343.12
2018-09-30T14:41:29.405Z,343.12
2018-09-30T14:42:29.373Z,337.50
2018-09-30T14:43:29.361Z,337.50
2018-09-30T14:44:29.360Z,337.50
2018-09-30T14:45:29.358Z,331.88
2018-09-30T14:46:29.346Z,331.88
2018-09-30T14:47:29.317Z,331.88
2018-09-30T14:48:29.321Z,331.88
2018-09-30T14:49:29.523Z,331.88
2018-09-30T14:50:29.377Z,326.25
2018-09-30T14:51:29.313Z,326.25
2018-09-30T14:52:29.263Z,326.25
2018-09-30T14:53:29.254Z,320.62
2018-09-30T14:54:29.369Z,320.62
2018-09-30T14:55:29.440Z,320.62
2018-09-30T14:56:30.048Z,320.62
2018-09-30T14:57:29.279Z,315.00
2018-09-30T14:58:29.228Z,315.00
2018-09-30T14:59:29.189Z,315.00
2018-09-30T15:00:29.188Z,320.62
2018-09-30T15:01:29.217Z,315.00
2018-09-30T15:02:29.188Z,315.00
2018-09-30T15:03:29.142Z,315.00
2018-09-30T15:04:29.137Z,309.38
2018-09-30T15:05:29.117Z,309.38
2018-09-30T15:06:29.141Z,309.38
2018-09-30T15:07:29.100Z,309.38
2018-09-30T15:08:29.103Z,309.38
2018-09-30T15:09:29.083Z,309.38
2018-09-30T15:10:29.115Z,303.75
2018-09-30T15:11:29.069Z,303.75
2018-09-30T15:12:29.054Z,303.75
2018-09-30T15:13:29.034Z,303.75
2018-09-30T15:14:29.025Z,303.75
2018-09-30T15:15:29.025Z,303.75
2018-09-30T15:16:29.285Z,298.12
2018-09-30T15:17:29.008Z,303.75
2018-09-30T15:18:29.360Z,298.12
2018-09-30T15:19:29.024Z,298.12
2018-09-30T15:20:28.957Z,298.12
2018-09-30T15:21:28.952Z,292.50
2018-09-30T15:22:29.029Z,292.50
2018-09-30T15:23:28.927Z,292.50
2018-09-30T15:24:28.915Z,292.50
2018-09-30T15:25:28.912Z,286.88
2018-09-30T15:26:28.941Z,286.88
2018-09-30T15:27:28.964Z,286.88
2018-09-30T15:28:29.319Z,281.25
2018-09-30T15:29:28.858Z,281.25
2018-09-30T15:30:28.842Z,281.25
2018-09-30T15:31:28.836Z,281.25
2018-09-30T15:32:28.887Z,281.25
2018-09-30T15:33:28.837Z,281.25
2018-09-30T15:34:28.809Z,275.62
2018-09-30T15:35:28.839Z,275.62
2018-09-30T15:36:28.791Z,270.00
2018-09-30T15:37:28.766Z,270.00
2018-09-30T15:38:28.859Z,270.00
2018-09-30T15:39:28.761Z,264.38
2018-09-30T15:40:29.444Z,264.38
2018-09-30T15:41:28.761Z,264.38
2018-09-30T15:42:28.709Z,258.75
2018-09-30T15:43:28.757Z,258.75
2018-09-30T15:44:28.937Z,258.75
2018-09-30T15:46:54.877Z,253.12
2018-09-30T15:47:54.645Z,253.12
2018-09-30T15:48:54.369Z,253.12
2018-09-30T15:49:54.416Z,247.50
2018-09-30T15:50:54.398Z,247.50
2018-09-30T15:51:54.321Z,247.50
2018-09-30T15:52:54.302Z,241.88
2018-09-30T15:53:54.287Z,241.88
2018-09-30T15:54:54.288Z,241.88
2018-09-30T15:55:54.247Z,236.25
2018-09-30T15:56:54.346Z,236.25
2018-09-30T15:58:05.339Z,236.25
2018-09-30T15:58:54.494Z,230.62
2018-09-30T16:00:04.699Z,230.62
2018-09-30T16:00:54.344Z,230.62
2018-09-30T16:01:54.230Z,225.00
2018-09-30T16:02:54.308Z,225.00
2018-09-30T16:03:54.244Z,219.38
2018-09-30T16:04:54.150Z,219.38
2018-09-30T16:07:07.976Z,213.75
2018-09-30T16:08:05.991Z,213.75
2018-09-30T16:09:05.953Z,208.12
2018-09-30T16:10:15.710Z,208.12
2018-09-30T16:11:06.066Z,202.50
2018-09-30T16:12:05.944Z,202.50
2018-09-30T16:13:05.976Z,196.88
2018-09-30T16:14:05.887Z,196.88
2018-09-30T16:15:05.902Z,191.25
2018-09-30T16:16:05.889Z,185.62
2018-09-30T16:17:05.978Z,185.62
2018-09-30T16:18:05.890Z,174.38
2018-09-30T16:19:05.842Z,151.88
2018-09-30T16:20:05.823Z,146.25
2018-09-30T16:21:05.829Z,146.25
2018-09-30T16:22:05.799Z,146.25
2018-09-30T16:23:05.808Z,140.62
2018-09-30T16:24:05.790Z,129.38
2018-09-30T16:25:05.833Z,123.75
2018-09-30T16:26:05.766Z,123.75
2018-09-30T16:27:05.758Z,118.12
2018-09-30T16:28:05.807Z,112.50
2018-09-30T16:30:19.390Z,106.88
2018-09-30T16:31:17.335Z,101.25
2018-09-30T16:32:17.284Z,101.25
2018-09-30T16:33:17.181Z,95.62
2018-09-30T16:34:17.165Z,95.62
2018-09-30T16:35:17.235Z,90.00
2018-09-30T16:36:17.139Z,90.00
2018-09-30T16:37:17.129Z,84.38
2018-09-30T16:38:17.192Z,84.38
2018-09-30T16:39:17.095Z,78.75
2018-09-30T16:40:17.079Z,78.75
2018-09-30T16:41:17.736Z,73.12
2018-09-30T16:42:18.767Z,73.12
2018-09-30T16:43:17.123Z,73.12
2018-09-30T16:44:17.071Z,67.50
2018-09-30T16:45:17.089Z,67.50
2018-09-30T16:47:41.190Z,61.88
2018-09-30T16:48:40.496Z,56.25
2018-09-30T16:49:40.553Z,56.25
2018-09-30T16:50:40.619Z,50.62
2018-09-30T16:51:40.343Z,50.62
2018-09-30T16:52:40.487Z,50.62
2018-09-30T16:53:40.392Z,45.00
2018-09-30T16:54:40.328Z,45.00
2018-09-30T16:55:40.411Z,39.38
2018-09-30T16:56:40.392Z,39.38
2018-09-30T16:57:40.382Z,39.38
2018-09-30T16:58:42.163Z,33.75
2018-09-30T17:09:04.732Z,16.88
2018-09-30T17:20:45.996Z,0.00
2018-09-30T17:21:45.595Z,0.00
2018-09-30T17:22:45.543Z,0.00
2018-09-30T17:23:45.562Z,0.00
2018-09-30T17:24:45.521Z,0.00
2018-09-30T17:25:45.419Z,0.00
2018-09-30T17:26:45.478Z,0.00
2018-09-30T17:27:45.477Z,0.00
2018-09-30T17:28:45.457Z,0.00
2018-09-30T17:29:45.398Z,0.00
2018-09-30T17:30:45.474Z,0.00
2018-09-30T17:31:45.402Z,0.00
2018-09-30T17:32:45.326Z,0.00
2018-09-30T17:33:45.340Z,0.00
2018-09-30T17:34:45.397Z,0.00
2018-09-30T17:35:45.386Z,0.00
2018-09-30T17:36:45.279Z,0.00
2018-09-30T17:37:45.356Z,0.00
2018-09-30T17:38:45.270Z,0.00
2018-09-30T17:39:45.409Z,0.00
2018-09-30T17:40:48.259Z,0.00
2018-09-30T17:41:57.101Z,0.00
2018-09-30T17:42:46.926Z,0.00
2018-09-30T17:43:47.957Z,0.00
2018-09-30T17:44:45.333Z,0.00
2018-09-30T17:45:45.519Z,0.00
2018-09-30T18:03:40.030Z,0.00
2018-09-30T18:16:33.302Z,0.00
2018-09-30T18:17:33.071Z,0.00
2018-09-30T18:18:33.054Z,0.00
2018-09-30T18:19:32.955Z,0.00
2018-09-30T18:20:32.926Z,0.00
2018-09-30T18:21:33.616Z,0.00
2018-09-30T18:22:32.903Z,0.00
2018-09-30T18:23:32.930Z,0.00
2018-09-30T18:24:32.891Z,0.00
2018-09-30T18:25:32.864Z,0.00
2018-09-30T18:26:32.893Z,0.00
2018-09-30T18:27:32.808Z,0.00
2018-09-30T18:28:32.876Z,0.00
2018-09-30T18:29:32.792Z,0.00
2018-09-30T18:30:32.776Z,0.00
2018-09-30T18:31:32.772Z,0.00
2018-09-30T18:32:32.815Z,0.00
2018-09-30T18:33:32.742Z,0.00
2018-09-30T18:34:32.773Z,0.00
2018-09-30T18:35:32.753Z,0.00
2018-09-30T19:04:21.525Z,0.00
2018-09-30T19:05:21.157Z,0.00
2018-09-30T19:06:21.117Z,0.00
2018-09-30T19:08:15.471Z,0.00
2018-09-30T19:09:15.281Z,0.00
2018-09-30T19:10:15.857Z,0.00
2018-09-30T19:11:15.164Z,0.00
2018-09-30T19:12:15.069Z,0.00
2018-09-30T19:13:14.993Z,0.00
2018-09-30T19:14:15.052Z,0.00
2018-09-30T19:15:15.032Z,0.00
2018-09-30T19:16:15.185Z,0.00
2018-09-30T19:19:13.804Z,0.00
2018-09-30T19:20:13.242Z,0.00
2018-09-30T19:21:13.236Z,0.00
2018-09-30T19:22:13.183Z,0.00
2018-09-30T19:23:13.102Z,0.00
2018-09-30T19:24:13.120Z,0.00
2018-09-30T19:25:13.101Z,0.00
2018-09-30T19:26:13.063Z,0.00
2018-09-30T19:27:13.058Z,0.00
2018-09-30T19:28:13.057Z,0.00
2018-09-30T19:29:13.042Z,0.00
2018-09-30T19:30:13.052Z,0.00
2018-09-30T19:31:14.028Z,0.00
2018-09-30T19:32:13.013Z,0.00
2018-09-30T19:33:13.122Z,0.00
2018-09-30T19:38:53.910Z,0.00
2018-09-30T19:39:53.478Z,0.00
2018-09-30T19:40:53.447Z,0.00
2018-09-30T19:41:53.524Z,0.00
2018-09-30T19:42:53.465Z,0.00
2018-09-30T19:43:53.316Z,0.00
2018-09-30T19:44:53.323Z,0.00
2018-09-30T19:45:53.273Z,0.00
2018-09-30T19:46:53.293Z,0.00
2018-09-30T19:47:53.256Z,0.00
2018-09-30T19:48:53.393Z,0.00
2018-09-30T19:49:53.237Z,0.00
2018-09-30T19:50:53.266Z,0.00
2018-09-30T19:51:53.344Z,0.00
2018-09-30T19:52:53.342Z,0.00
2018-09-30T19:53:53.257Z,0.00
2018-09-30T19:54:53.193Z,0.00
2018-09-30T20:04:21.013Z,0.00
2018-09-30T20:05:20.622Z,0.00
2018-09-30T20:06:20.532Z,0.00
2018-09-30T20:07:20.510Z,0.00
2018-09-30T20:08:20.607Z,0.00
2018-09-30T20:09:20.598Z,0.00
2018-09-30T20:10:20.626Z,0.00
2018-09-30T20:11:20.449Z,0.00
2018-09-30T20:12:20.391Z,0.00
2018-09-30T20:13:20.378Z,0.00
2018-09-30T20:14:20.587Z,0.00
2018-09-30T20:15:21.244Z,0.00
2018-09-30T20:17:38.683Z,0.00
2018-09-30T20:18:38.252Z,0.00
2018-09-30T20:19:38.272Z,0.00
2018-09-30T20:20:38.218Z,0.00
2018-09-30T20:21:38.103Z,0.00
2018-09-30T20:22:38.119Z,0.00
2018-09-30T20:23:38.059Z,0.00
2018-09-30T20:24:38.069Z,0.00
2018-09-30T20:25:38.086Z,0.00
2018-09-30T20:26:38.046Z,0.00
2018-09-30T20:27:38.044Z,0.00
2018-09-30T20:30:57.795Z,0.00
2018-09-30T20:31:57.389Z,0.00
2018-09-30T20:32:57.375Z,0.00
2018-09-30T20:33:57.352Z,0.00
2018-09-30T20:34:57.241Z,0.00
2018-09-30T20:35:57.218Z,0.00
2018-09-30T20:36:57.367Z,0.00
2018-09-30T20:37:57.209Z,0.00
2018-09-30T20:38:57.287Z,0.00
2018-09-30T20:39:57.179Z,0.00
2018-09-30T20:40:57.874Z,0.00
2018-09-30T20:41:57.199Z,0.00
2018-09-30T20:42:57.150Z,0.00
2018-09-30T20:43:57.134Z,0.00
2018-09-30T20:44:57.160Z,0.00
2018-09-30T20:45:57.115Z,0.00
2018-09-30T20:46:57.145Z,0.00
2018-09-30T20:47:57.133Z,0.00
2018-09-30T20:48:57.116Z,0.00
2018-09-30T20:49:57.072Z,0.00
2018-09-30T20:50:57.061Z,0.00
2018-09-30T20:51:57.086Z,0.00
2018-09-30T20:52:57.039Z,0.00
2018-09-30T20:53:57.081Z,0.00
2018-09-30T20:54:57.055Z,0.00
2018-09-30T20:55:57.071Z,0.00
2018-09-30T20:56:57.065Z,0.00
2018-09-30T20:57:57.002Z,0.00
2018-09-30T20:58:56.995Z,0.00
2018-09-30T20:59:56.971Z,0.00
2018-09-30T21:00:56.965Z,0.00
2018-09-30T21:01:56.941Z,0.00
2018-09-30T21:02:56.943Z,0.00
2018-09-30T21:03:56.920Z,0.00
2018-09-30T21:04:56.992Z,0.00
2018-09-30T21:05:56.896Z,0.00
2018-09-30T21:06:56.891Z,0.00
2018-09-30T21:07:56.870Z,0.00
2018-09-30T21:08:56.861Z,0.00
2018-09-30T21:09:56.927Z,0.00
2018-09-30T21:10:56.841Z,0.00
2018-09-30T21:11:56.835Z,0.00
2018-09-30T21:12:56.833Z,0.00
2018-09-30T21:13:56.816Z,0.00
2018-09-30T21:14:56.793Z,0.00
2018-09-30T21:15:56.782Z,0.00
2018-09-30T21:16:56.798Z,0.00
2018-09-30T21:17:56.769Z,0.00
2018-09-30T21:18:56.751Z,0.00
2018-09-30T21:19:56.763Z,0.00
2018-09-30T21:20:56.729Z,0.00
2018-09-30T21:21:56.719Z,0.00
2018-09-30T21:22:56.729Z,0.00
2018-09-30T21:23:56.700Z,0.00
2018-09-30T21:24:56.694Z,0.00
2018-09-30T21:25:56.690Z,0.00
2018-09-30T21:26:56.660Z,0.00
2018-09-30T21:27:56.656Z,0.00